Time;durP1;ratioP1;P1;durP2;ratioP2;P2;SDS_P1;SDS_P2;PMS_P1;PMS_P2;Temp;Humidity;BMP_temperature;BMP_pressure;BME280_temperature;BME280_humidity;BME280_pressure;Samples;Min_cycle;Max_cycle;Signal;HPM_P1;HPM_P2
2021/09/11 00:01:35;;;;;;;3.25;1.00;;;16.50;50.90;;;;;;5035005;28;20567;-59
2021/09/11 00:04:06;;;;;;;1.65;0.73;;;16.60;51.30;;;;;;5034776;28;20199;-59
2021/09/11 00:06:36;;;;;;;3.03;0.80;;;16.60;52.00;;;;;;5034908;28;20231;-57
2021/09/11 00:09:09;;;;;;;0.50;0.50;;;16.60;51.20;;;;;;5034873;28;20557;-59
2021/09/11 00:11:39;;;;;;;0.95;0.68;;;16.70;51.20;;;;;;5034925;28;20302;-55
2021/09/11 00:14:10;;;;;;;0.70;0.50;;;16.70;51.10;;;;;;5034946;28;20200;-60
2021/09/11 00:16:40;;;;;;;0.75;0.73;;;16.70;51.00;;;;;;5034983;28;20302;-60
2021/09/11 00:19:11;;;;;;;0.95;0.60;;;16.80;51.10;;;;;;5034471;28;20200;-58
2021/09/11 00:21:41;;;;;;;0.70;0.70;;;16.80;51.00;;;;;;5034465;28;20220;-59
2021/09/11 00:24:13;;;;;;;1.25;0.70;;;16.80;50.90;;;;;;5034773;28;20200;-60
2021/09/11 00:26:44;;;;;;;0.82;0.60;;;16.90;50.90;;;;;;5034405;28;20278;-59
2021/09/11 00:29:14;;;;;;;0.68;0.50;;;16.90;50.80;;;;;;5034486;28;20271;-60
2021/09/11 00:31:45;;;;;;;0.85;0.80;;;16.90;50.80;;;;;;5034380;28;20632;-58
2021/09/11 00:34:15;;;;;;;0.93;0.70;;;16.90;50.80;;;;;;5034202;28;20281;-58
2021/09/11 00:36:48;;;;;;;1.25;0.70;;;17.00;51.00;;;;;;5033989;28;20224;-59
2021/09/11 00:39:20;;;;;;;1.40;0.80;;;17.00;50.90;;;;;;5034337;28;20208;-59
2021/09/11 00:41:51;;;;;;;0.63;0.63;;;17.00;50.90;;;;;;5034020;28;20269;-59
2021/09/11 00:44:21;;;;;;;1.83;0.70;;;17.10;50.90;;;;;;5034921;28;20648;-59
2021/09/11 00:46:52;;;;;;;1.23;0.70;;;17.10;50.80;;;;;;5034352;28;20203;-56
2021/09/11 00:49:22;;;;;;;0.77;0.68;;;17.10;50.80;;;;;;5033727;28;20203;-59
2021/09/11 00:51:53;;;;;;;1.55;0.80;;;17.20;50.80;;;;;;5033722;28;20220;-59
2021/09/11 00:54:25;;;;;;;1.20;0.68;;;17.20;50.70;;;;;;5034279;28;20572;-58
2021/09/11 00:56:56;;;;;;;0.88;0.60;;;17.30;50.80;;;;;;5033632;28;20254;-59
2021/09/11 00:59:26;;;;;;;2.85;0.77;;;17.20;50.70;;;;;;5033782;28;20280;-59
2021/09/11 01:01:57;;;;;;;0.60;0.60;;;17.30;50.70;;;;;;5033910;28;20252;-58
2021/09/11 01:04:30;;;;;;;0.80;0.60;;;17.40;50.80;;;;;;5033890;28;20196;-58
2021/09/11 01:07:01;;;;;;;0.68;0.63;;;17.40;50.70;;;;;;5034092;28;20218;-59
2021/09/11 01:09:34;;;;;;;1.63;0.90;;;17.40;50.70;;;;;;5033196;28;20195;-59
2021/09/11 01:12:04;;;;;;;0.73;0.70;;;17.40;50.70;;;;;;5033748;28;20258;-60
2021/09/11 01:14:34;;;;;;;0.90;0.63;;;17.50;50.70;;;;;;5033996;28;20235;-58
2021/09/11 01:17:05;;;;;;;0.70;0.70;;;17.50;50.70;;;;;;5033667;28;20270;-60
2021/09/11 01:19:35;;;;;;;0.60;0.60;;;17.50;50.70;;;;;;5033782;28;20614;-59
2021/09/11 01:22:06;;;;;;;1.25;0.70;;;17.50;50.70;;;;;;5033232;28;20281;-59
2021/09/11 01:24:38;;;;;;;0.65;0.55;;;17.60;50.70;;;;;;5033615;28;20232;-59
2021/09/11 01:27:09;;;;;;;0.95;0.82;;;17.60;50.50;;;;;;5033647;28;20625;-57
2021/09/11 01:29:39;;;;;;;1.35;0.90;;;17.60;50.50;;;;;;5033764;28;20261;-59
2021/09/11 01:32:16;;;;;;;0.77;0.77;;;17.60;50.30;;;;;;5033213;28;20775;-60
2021/09/11 01:34:47;;;;;;;2.05;0.70;;;17.70;50.40;;;;;;5013340;28;20783;-60
2021/09/11 01:37:17;;;;;;;0.93;0.65;;;17.70;50.50;;;;;;5013387;28;20224;-59
2021/09/11 01:39:49;;;;;;;0.93;0.70;;;17.80;50.50;;;;;;5013720;28;20280;-60
2021/09/11 01:42:20;;;;;;;1.05;0.90;;;17.80;50.60;;;;;;5027123;28;20231;-59
2021/09/11 01:44:51;;;;;;;0.80;0.70;;;17.80;50.50;;;;;;5033952;28;20664;-59
2021/09/11 01:47:21;;;;;;;2.00;0.80;;;17.80;50.50;;;;;;5033238;28;20258;-60
2021/09/11 01:49:51;;;;;;;1.30;0.80;;;17.80;50.30;;;;;;5033102;28;20691;-60
2021/09/11 01:52:23;;;;;;;0.98;0.88;;;17.90;50.20;;;;;;5033622;28;20196;-60
2021/09/11 01:54:55;;;;;;;0.98;0.80;;;17.90;50.20;;;;;;5032802;28;20497;-56
2021/09/11 01:57:26;;;;;;;1.63;0.70;;;18.00;50.10;;;;;;5032845;28;20274;-60
2021/09/11 01:59:56;;;;;;;0.88;0.68;;;17.90;49.90;;;;;;5032670;28;20231;-60
2021/09/11 02:02:27;;;;;;;0.70;0.65;;;18.00;49.80;;;;;;5032754;28;20227;-60
2021/09/11 02:04:57;;;;;;;0.63;0.50;;;18.00;49.60;;;;;;5032599;28;20402;-62
2021/09/11 02:07:28;;;;;;;1.00;0.90;;;18.10;49.60;;;;;;5032604;28;20200;-60
2021/09/11 02:10:00;;;;;;;0.60;0.60;;;18.10;49.60;;;;;;5032281;28;20200;-60
2021/09/11 02:12:30;;;;;;;0.90;0.60;;;18.10;49.60;;;;;;5032555;28;20640;-62
2021/09/11 02:15:01;;;;;;;1.02;0.73;;;18.10;49.60;;;;;;5032552;28;20224;-60
2021/09/11 02:17:31;;;;;;;1.58;0.90;;;18.20;49.60;;;;;;5032301;28;20664;-56
2021/09/11 02:20:02;;;;;;;0.90;0.75;;;18.20;49.60;;;;;;5030790;28;20623;-61
2021/09/11 02:22:32;;;;;;;1.00;0.80;;;18.20;49.60;;;;;;5032374;28;20254;-60
2021/09/11 02:25:04;;;;;;;0.70;0.70;;;18.30;49.60;;;;;;5032804;28;20228;-61
2021/09/11 02:27:35;;;;;;;0.73;0.70;;;18.30;49.50;;;;;;5032551;28;20235;-59
2021/09/11 02:30:06;;;;;;;1.00;0.70;;;18.30;49.40;;;;;;5032282;28;20254;-59
2021/09/11 02:32:36;;;;;;;1.13;0.82;;;18.30;49.50;;;;;;5032447;28;20281;-61
2021/09/11 02:35:08;;;;;;;2.50;0.73;;;18.30;49.40;;;;;;5031707;28;20689;-59
2021/09/11 02:37:38;;;;;;;1.55;0.80;;;18.40;49.20;;;;;;5031669;28;20264;-61
2021/09/11 02:40:11;;;;;;;1.58;0.88;;;18.40;49.00;;;;;;5032125;28;20251;-60
2021/09/11 02:42:42;;;;;;;0.82;0.80;;;18.40;48.90;;;;;;5032340;28;20235;-62
2021/09/11 02:45:13;;;;;;;1.30;1.00;;;18.50;49.00;;;;;;5032634;28;20287;-59
2021/09/11 02:47:44;;;;;;;1.27;0.77;;;18.50;49.00;;;;;;5032397;28;20228;-58
2021/09/11 02:50:15;;;;;;;1.33;0.90;;;18.50;49.00;;;;;;5032019;28;20216;-60
2021/09/11 02:52:45;;;;;;;1.20;0.77;;;18.60;49.10;;;;;;5032091;28;20196;-61
2021/09/11 02:55:18;;;;;;;1.08;0.70;;;18.60;49.00;;;;;;5032067;28;20196;-60
2021/09/11 02:57:48;;;;;;;1.50;1.00;;;18.60;48.90;;;;;;5031856;28;20281;-60
2021/09/11 03:00:19;;;;;;;1.08;0.80;;;18.70;48.80;;;;;;5031945;28;20676;-60
2021/09/11 03:02:49;;;;;;;2.70;0.70;;;18.70;48.70;;;;;;5031812;28;20225;-61
2021/09/11 03:05:20;;;;;;;0.93;0.80;;;18.70;48.40;;;;;;5031249;28;20227;-60
2021/09/11 03:07:50;;;;;;;0.75;0.75;;;18.70;48.20;;;;;;5031531;28;20204;-61
2021/09/11 03:10:22;;;;;;;1.10;0.70;;;18.80;48.20;;;;;;5031625;28;20216;-60
2021/09/11 03:12:53;;;;;;;1.30;0.82;;;18.80;48.00;;;;;;5031727;28;20211;-62
2021/09/11 03:15:23;;;;;;;0.70;0.70;;;18.80;47.80;;;;;;5031459;28;20298;-60
2021/09/11 03:17:54;;;;;;;0.95;0.70;;;18.80;48.00;;;;;;5031938;28;20255;-60
2021/09/11 03:20:24;;;;;;;1.33;0.70;;;18.90;48.10;;;;;;5031390;28;20449;-60
2021/09/11 03:22:55;;;;;;;0.82;0.70;;;18.90;48.20;;;;;;5031510;28;20204;-60
2021/09/11 03:25:27;;;;;;;0.70;0.70;;;18.90;48.30;;;;;;5030838;28;20228;-59
2021/09/11 03:27:58;;;;;;;0.77;0.70;;;18.90;48.10;;;;;;5031092;28;20197;-60
2021/09/11 03:30:28;;;;;;;0.95;0.75;;;19.00;48.20;;;;;;5031068;28;20769;-60
2021/09/11 03:32:59;;;;;;;0.85;0.65;;;19.00;48.10;;;;;;5031027;28;20196;-62
2021/09/11 03:35:29;;;;;;;0.60;0.60;;;19.00;48.10;;;;;;5031004;28;20231;-58
2021/09/11 03:38:00;;;;;;;0.75;0.60;;;19.10;48.00;;;;;;5031480;28;20289;-60
2021/09/11 03:40:32;;;;;;;0.63;0.63;;;19.10;48.00;;;;;;5030698;28;20258;-51
2021/09/11 03:43:02;;;;;;;0.70;0.60;;;19.20;48.00;;;;;;5031138;28;20242;-57
2021/09/11 03:45:33;;;;;;;1.27;0.70;;;19.20;47.50;;;;;;5031648;28;20199;-61
2021/09/11 03:48:03;;;;;;;0.80;0.70;;;19.20;47.70;;;;;;5031309;28;20232;-61
2021/09/11 03:50:34;;;;;;;0.98;0.60;;;19.20;47.30;;;;;;5030613;28;20285;-61
2021/09/11 03:53:04;;;;;;;0.80;0.68;;;19.20;47.40;;;;;;5030696;28;20258;-61
2021/09/11 03:55:36;;;;;;;0.77;0.70;;;19.20;47.30;;;;;;5029978;28;20204;-61
2021/09/11 03:58:08;;;;;;;0.95;0.63;;;19.20;47.10;;;;;;5030830;28;20263;-60
2021/09/11 04:00:39;;;;;;;1.27;0.80;;;19.30;47.20;;;;;;5030909;28;20247;-62
2021/09/11 04:03:09;;;;;;;1.63;0.68;;;19.30;47.00;;;;;;5030972;28;20279;-60
2021/09/11 04:05:39;;;;;;;1.30;0.65;;;19.30;46.90;;;;;;5031281;28;20254;-61
2021/09/11 04:08:30;;;;;;;1.08;0.70;;;19.30;46.90;;;;;;5031352;28;20242;-61
2021/09/11 04:11:02;;;;;;;1.50;0.90;;;19.40;47.00;;;;;;5031156;28;20314;-61
2021/09/11 04:13:33;;;;;;;1.75;0.90;;;19.40;47.10;;;;;;5031235;28;20196;-60
2021/09/11 04:16:03;;;;;;;1.90;0.80;;;19.40;47.10;;;;;;5031048;28;20196;-61
2021/09/11 04:18:34;;;;;;;3.05;1.02;;;19.40;47.10;;;;;;5031250;28;20259;-61
2021/09/11 04:21:04;;;;;;;1.38;0.70;;;19.40;47.10;;;;;;5030690;28;20220;-60
2021/09/11 04:23:35;;;;;;;1.77;0.82;;;19.40;47.10;;;;;;5030650;28;20227;-60
2021/09/11 04:26:07;;;;;;;1.67;0.93;;;19.40;47.10;;;;;;5030492;28;20241;-61
2021/09/11 04:28:37;;;;;;;1.35;0.90;;;19.40;47.10;;;;;;5030523;28;20279;-59
2021/09/11 04:31:08;;;;;;;2.13;0.90;;;19.50;47.10;;;;;;5030777;28;20255;-58
2021/09/11 04:33:38;;;;;;;1.75;1.00;;;19.50;47.10;;;;;;5031067;28;20231;-62
2021/09/11 04:36:09;;;;;;;1.77;0.90;;;19.50;47.20;;;;;;5030764;28;20231;-61
2021/09/11 04:38:41;;;;;;;2.13;1.33;;;19.50;47.30;;;;;;5030915;28;20597;-60
2021/09/11 04:41:13;;;;;;;1.85;0.80;;;19.50;47.30;;;;;;5030536;28;20224;-62
2021/09/11 04:43:43;;;;;;;2.58;0.80;;;19.50;47.30;;;;;;5031912;28;20238;-59
2021/09/11 04:46:14;;;;;;;1.70;0.80;;;19.50;47.30;;;;;;5034450;28;20235;-61
2021/09/11 04:48:44;;;;;;;2.88;0.98;;;19.60;47.40;;;;;;5034037;28;20598;-61
2021/09/11 04:51:15;;;;;;;2.72;0.80;;;19.50;47.30;;;;;;5034326;28;20224;-61
2021/09/11 04:53:45;;;;;;;2.10;0.90;;;19.50;47.30;;;;;;5034101;28;20228;-58
2021/09/11 04:56:17;;;;;;;1.73;1.00;;;19.50;47.30;;;;;;5033846;28;20228;-61
2021/09/11 04:58:48;;;;;;;2.08;0.90;;;19.60;47.30;;;;;;5033417;28;20270;-62
2021/09/11 05:01:18;;;;;;;2.75;1.10;;;19.60;47.30;;;;;;5033627;28;20247;-59
2021/09/11 05:03:49;;;;;;;2.80;1.00;;;19.50;47.30;;;;;;5033444;28;20247;-61
2021/09/11 05:06:19;;;;;;;3.35;1.08;;;19.50;47.30;;;;;;5033336;28;20236;-62
2021/09/11 05:08:50;;;;;;;2.53;1.20;;;19.50;47.20;;;;;;5033800;28;20200;-63
2021/09/11 05:11:22;;;;;;;3.28;1.13;;;19.50;47.30;;;;;;5033876;28;20228;-60
2021/09/11 05:13:53;;;;;;;2.72;0.98;;;19.50;47.30;;;;;;5033718;28;20203;-61
2021/09/11 05:16:24;;;;;;;1.92;1.00;;;19.50;47.30;;;;;;5033609;28;20200;-61
2021/09/11 05:18:54;;;;;;;3.95;1.17;;;19.50;47.20;;;;;;5032773;28;20228;-60
2021/09/11 05:21:25;;;;;;;5.18;1.30;;;19.50;47.20;;;;;;5033225;28;20220;-60
2021/09/11 05:23:55;;;;;;;3.03;1.00;;;19.50;47.30;;;;;;5033263;28;20575;-60
2021/09/11 05:26:28;;;;;;;2.45;0.90;;;19.50;47.40;;;;;;5033440;28;20196;-61
2021/09/11 05:28:58;;;;;;;2.97;0.90;;;19.40;47.30;;;;;;5033395;28;20200;-61
2021/09/11 05:31:29;;;;;;;2.10;1.00;;;19.40;47.40;;;;;;5033837;28;20274;-62
2021/09/11 05:34:00;;;;;;;2.15;0.70;;;19.40;47.40;;;;;;5033470;28;20200;-59
2021/09/11 05:36:30;;;;;;;3.17;0.98;;;19.40;47.40;;;;;;5033160;28;20200;-60
2021/09/11 05:39:01;;;;;;;2.10;0.73;;;19.40;47.40;;;;;;5033259;28;20228;-60
2021/09/11 05:41:33;;;;;;;2.28;0.88;;;19.40;47.40;;;;;;5033220;28;20318;-55
2021/09/11 05:44:04;;;;;;;2.45;1.02;;;19.40;47.40;;;;;;5033143;28;20820;-61
2021/09/11 05:46:34;;;;;;;3.70;1.30;;;19.40;47.50;;;;;;5033527;28;20196;-55
2021/09/11 05:49:05;;;;;;;4.68;1.27;;;19.30;47.50;;;;;;5033170;28;20614;-52
2021/09/11 05:51:36;;;;;;;4.85;1.05;;;19.30;47.50;;;;;;5032621;28;20227;-58
2021/09/11 05:54:06;;;;;;;1.95;0.90;;;19.30;47.40;;;;;;5032619;28;20208;-59
2021/09/11 05:56:39;;;;;;;2.83;1.30;;;19.30;47.50;;;;;;5032339;28;20184;-61
2021/09/11 05:59:09;;;;;;;1.60;0.95;;;19.30;47.60;;;;;;5032436;28;20270;-62
2021/09/11 06:01:41;;;;;;;3.70;0.80;;;19.20;47.60;;;;;;5032641;28;20216;-61
2021/09/11 06:04:12;;;;;;;2.30;1.10;;;19.20;47.60;;;;;;5032425;28;20239;-61
2021/09/11 06:06:42;;;;;;;2.30;0.82;;;19.20;47.70;;;;;;5032600;28;20201;-58
2021/09/11 06:09:13;;;;;;;3.80;1.20;;;19.20;47.70;;;;;;5032668;28;20299;-61
2021/09/11 06:11:45;;;;;;;1.55;0.85;;;19.10;47.70;;;;;;5032503;28;20228;-61
2021/09/11 06:14:16;;;;;;;2.15;1.10;;;19.10;47.80;;;;;;5032839;28;20231;-58
2021/09/11 06:16:47;;;;;;;2.35;1.02;;;19.10;47.90;;;;;;5032714;28;20204;-61
2021/09/11 06:19:17;;;;;;;1.70;1.13;;;19.10;47.90;;;;;;5032678;28;20223;-61
2021/09/11 06:21:48;;;;;;;3.30;1.30;;;19.10;47.90;;;;;;5032348;28;20220;-61
2021/09/11 06:24:18;;;;;;;2.33;1.00;;;19.00;47.90;;;;;;5032395;28;20200;-54
2021/09/11 06:26:51;;;;;;;2.45;1.00;;;19.00;47.90;;;;;;5032424;28;20203;-61
2021/09/11 06:29:21;;;;;;;2.67;1.20;;;19.00;47.90;;;;;;5032199;28;20570;-58
2021/09/11 06:31:52;;;;;;;2.47;1.27;;;19.00;48.00;;;;;;5032188;28;20220;-61
2021/09/11 06:34:23;;;;;;;2.58;1.10;;;19.00;48.00;;;;;;5032026;28;20200;-60
2021/09/11 06:36:53;;;;;;;2.75;1.10;;;18.90;48.00;;;;;;5032129;28;20242;-60
2021/09/11 06:39:25;;;;;;;3.03;1.20;;;18.90;48.10;;;;;;5032417;28;20228;-60
2021/09/11 06:41:58;;;;;;;1.80;1.15;;;18.90;48.20;;;;;;5031317;28;20223;-61
2021/09/11 06:44:37;;;;;;;2.30;1.08;;;18.90;48.20;;;;;;5031758;28;20200;-60
2021/09/11 06:47:08;;;;;;;2.55;1.40;;;18.80;48.20;;;;;;5031775;28;20283;-62
2021/09/11 06:49:38;;;;;;;2.00;1.25;;;18.80;48.20;;;;;;5032298;28;20200;-61
2021/09/11 06:52:09;;;;;;;1.35;0.88;;;18.80;48.20;;;;;;5031879;28;20216;-61
2021/09/11 06:54:40;;;;;;;2.10;1.10;;;18.80;48.30;;;;;;5031523;28;20684;-61
2021/09/11 06:57:12;;;;;;;2.45;1.00;;;18.70;48.40;;;;;;5030898;28;20196;-58
2021/09/11 06:59:43;;;;;;;3.20;1.10;;;18.70;48.50;;;;;;5031357;28;20231;-63
2021/09/11 07:02:14;;;;;;;3.13;1.20;;;18.70;48.40;;;;;;5031236;28;20660;-61
2021/09/11 07:04:44;;;;;;;2.88;1.20;;;18.70;48.50;;;;;;5031442;28;20204;-59
2021/09/11 07:07:15;;;;;;;1.60;1.00;;;18.60;48.40;;;;;;5030760;28;20204;-60
2021/09/11 07:09:45;;;;;;;1.35;1.08;;;18.60;48.40;;;;;;5031654;28;20577;-62
2021/09/11 07:12:18;;;;;;;3.25;0.80;;;18.60;48.40;;;;;;5031479;28;20207;-61
2021/09/11 07:14:49;;;;;;;3.05;1.10;;;18.60;48.40;;;;;;5031664;28;20199;-62
2021/09/11 07:17:20;;;;;;;2.67;1.20;;;18.60;48.50;;;;;;5031616;28;20230;-59
2021/09/11 07:19:50;;;;;;;2.45;1.40;;;18.50;48.40;;;;;;5031440;28;20219;-61
2021/09/11 07:22:21;;;;;;;3.97;1.20;;;18.50;48.50;;;;;;5031597;28;20196;-62
2021/09/11 07:24:51;;;;;;;2.33;1.00;;;18.50;48.50;;;;;;5030628;28;20223;-63
2021/09/11 07:27:24;;;;;;;2.55;1.30;;;18.40;49.20;;;;;;5030889;28;20213;-59
2021/09/11 07:29:56;;;;;;;2.35;1.15;;;18.40;48.60;;;;;;5031504;28;20262;-62
2021/09/11 07:32:27;;;;;;;4.05;1.60;;;18.40;48.60;;;;;;5031035;28;20680;-62
2021/09/11 07:34:58;;;;;;;2.30;1.17;;;18.40;48.60;;;;;;5031162;28;20200;-63
2021/09/11 07:37:28;;;;;;;2.38;1.20;;;18.30;48.60;;;;;;5031087;28;20192;-63
2021/09/11 07:40:07;;;;;;;2.63;1.38;;;18.30;48.70;;;;;;5031042;28;20259;-62
2021/09/11 07:42:53;;;;;;;1.95;1.50;;;18.30;48.70;;;;;;5030561;28;20273;-61
2021/09/11 07:45:26;;;;;;;2.40;1.35;;;18.30;48.70;;;;;;5025439;28;20208;-62
2021/09/11 07:53:47;;;;;;;3.15;1.85;;;18.20;48.70;;;;;;5031080;28;20227;-61
2021/09/11 07:56:19;;;;;;;2.22;1.60;;;18.20;48.70;;;;;;5030413;28;20268;-60
2021/09/11 07:58:52;;;;;;;2.88;1.70;;;18.20;49.30;;;;;;5030737;28;20216;-62
2021/09/11 08:01:22;;;;;;;3.80;1.60;;;18.10;48.70;;;;;;5030633;28;20262;-63
2021/09/11 08:03:53;;;;;;;2.60;1.80;;;18.10;48.70;;;;;;5031066;28;20266;-60
2021/09/11 08:06:23;;;;;;;2.67;1.70;;;18.10;48.80;;;;;;5031213;28;20197;-61
2021/09/11 08:08:54;;;;;;;1.98;1.35;;;18.10;49.00;;;;;;5031372;28;20232;-55
2021/09/11 08:11:24;;;;;;;3.55;1.85;;;18.10;49.00;;;;;;5030988;28;20259;-61
2021/09/11 08:13:57;;;;;;;2.55;1.55;;;18.10;49.10;;;;;;5031249;28;20239;-63
2021/09/11 08:16:27;;;;;;;4.57;2.08;;;18.00;49.10;;;;;;5031187;28;20227;-59
2021/09/11 08:18:58;;;;;;;3.17;2.08;;;18.00;49.10;;;;;;5032594;28;20311;-61
2021/09/11 08:21:28;;;;;;;3.95;1.90;;;18.00;49.10;;;;;;5034207;28;20303;-62
2021/09/11 08:23:58;;;;;;;3.35;2.08;;;18.00;49.10;;;;;;5034266;28;20278;-60
2021/09/11 08:26:29;;;;;;;4.32;2.03;;;18.00;49.20;;;;;;5034504;28;20200;-61
2021/09/11 08:29:01;;;;;;;2.90;1.95;;;18.00;49.20;;;;;;5034440;28;20282;-61
2021/09/11 08:31:32;;;;;;;3.30;2.20;;;17.90;49.20;;;;;;5034305;28;20262;-61
2021/09/11 08:34:02;;;;;;;3.28;1.80;;;17.90;49.10;;;;;;5034635;28;20718;-61
2021/09/11 08:36:32;;;;;;;3.83;2.40;;;17.90;49.20;;;;;;5034479;28;20251;-60
2021/09/11 08:39:03;;;;;;;3.90;2.00;;;17.80;49.20;;;;;;5034631;28;20227;-62
2021/09/11 08:41:33;;;;;;;2.85;2.20;;;17.80;49.20;;;;;;5034288;28;20220;-59
2021/09/11 08:44:06;;;;;;;3.50;1.90;;;17.80;49.20;;;;;;5034166;28;20610;-61
2021/09/11 08:46:36;;;;;;;3.33;1.83;;;17.70;49.20;;;;;;5034153;28;20673;-60
2021/09/11 08:49:07;;;;;;;2.78;1.60;;;17.70;49.20;;;;;;5033709;28;20680;-59
2021/09/11 08:51:38;;;;;;;2.58;2.13;;;17.70;49.20;;;;;;5033920;28;20278;-58
2021/09/11 08:54:08;;;;;;;2.45;1.98;;;17.60;49.20;;;;;;5033995;28;20231;-61
2021/09/11 08:56:41;;;;;;;3.50;2.17;;;17.60;49.30;;;;;;5033366;28;20203;-61
2021/09/11 08:59:14;;;;;;;2.38;1.85;;;17.60;49.30;;;;;;5033569;28;20224;-60
2021/09/11 09:01:44;;;;;;;3.42;2.03;;;17.60;49.30;;;;;;5034291;28;20219;-60
2021/09/11 09:04:15;;;;;;;2.67;1.70;;;17.60;49.30;;;;;;5034053;28;20223;-62
2021/09/11 09:06:45;;;;;;;4.82;2.08;;;17.60;49.90;;;;;;5028862;28;20224;-57
2021/09/11 09:09:16;;;;;;;3.03;2.00;;;17.50;49.30;;;;;;5033406;28;20236;-61
2021/09/11 09:11:47;;;;;;;2.55;2.00;;;17.50;49.30;;;;;;5032408;28;20244;-62
2021/09/11 09:14:21;;;;;;;2.30;1.80;;;17.50;49.30;;;;;;5033293;28;20227;-61
2021/09/11 09:16:52;;;;;;;2.97;1.65;;;17.40;49.30;;;;;;5033043;28;20198;-60
2021/09/11 09:19:23;;;;;;;3.20;1.85;;;17.40;49.30;;;;;;5032435;28;20264;-62
2021/09/11 09:21:55;;;;;;;2.92;1.90;;;17.40;49.40;;;;;;5033042;28;21012;-62
2021/09/11 09:24:30;;;;;;;2.97;2.10;;;17.40;49.40;;;;;;5019924;28;20293;-61
2021/09/11 09:27:01;;;;;;;2.80;2.13;;;17.40;49.50;;;;;;5032519;28;20238;-62
2021/09/11 09:29:33;;;;;;;1.98;1.73;;;17.30;49.40;;;;;;5031921;28;20617;-62
2021/09/11 09:32:03;;;;;;;2.35;1.63;;;17.30;49.50;;;;;;5032805;28;20247;-62
2021/09/11 09:34:34;;;;;;;3.15;2.08;;;17.30;49.50;;;;;;5032166;28;20287;-54
2021/09/11 09:37:06;;;;;;;3.45;1.98;;;17.20;50.10;;;;;;5033427;28;20192;-62
2021/09/11 09:39:42;;;;;;;3.17;1.95;;;17.20;49.50;;;;;;5030746;28;20227;-63
2021/09/11 09:42:12;;;;;;;2.65;1.73;;;17.20;49.50;;;;;;5032243;28;20219;-62
2021/09/11 09:44:51;;;;;;;2.75;2.05;;;17.10;49.50;;;;;;5032962;28;20196;-58
2021/09/11 09:47:22;;;;;;;3.03;1.98;;;17.10;49.50;;;;;;5032250;28;20243;-61
2021/09/11 09:50:07;;;;;;;2.17;1.98;;;17.10;49.50;;;;;;5032089;28;20200;-60
2021/09/11 09:52:38;;;;;;;2.38;1.92;;;17.10;49.60;;;;;;5032426;28;20283;-61
2021/09/11 09:55:10;;;;;;;2.35;1.70;;;17.00;49.50;;;;;;5032899;28;20675;-61
2021/09/11 09:57:41;;;;;;;2.45;1.75;;;17.00;49.60;;;;;;5031239;28;20228;-61
2021/09/11 10:00:15;;;;;;;2.10;1.60;;;17.00;49.60;;;;;;5032688;28;20567;-62
2021/09/11 10:02:45;;;;;;;2.47;1.92;;;17.00;49.60;;;;;;5031106;28;20246;-60
2021/09/11 10:05:16;;;;;;;5.70;2.17;;;16.90;49.60;;;;;;5033032;28;20236;-57
2021/09/11 10:07:54;;;;;;;4.32;2.17;;;17.00;50.60;;;;;;5032224;28;20298;-58
2021/09/11 10:10:31;;;;;;;7.35;2.40;;;16.90;51.50;;;;;;5031268;28;20256;-62
2021/09/11 10:13:15;;;;;;;5.05;1.88;;;16.90;51.60;;;;;;5031274;28;20231;-59
2021/09/11 10:16:00;;;;;;;3.05;2.00;;;16.90;51.40;;;;;;5029026;28;20210;-60
2021/09/11 10:18:46;;;;;;;4.70;1.88;;;17.00;51.50;;;;;;5017636;28;20208;-58
2021/09/11 10:21:22;;;;;;;4.70;2.15;;;16.90;51.60;;;;;;5029330;28;20306;-63
2021/09/11 10:24:29;;;;;;;5.82;1.95;;;16.90;51.50;;;;;;5029962;28;20279;-57
2021/09/11 10:27:01;;;;;;;3.70;2.08;;;16.90;51.60;;;;;;4966695;28;20229;-61
2021/09/11 10:29:52;;;;;;;4.65;1.98;;;16.90;51.60;;;;;;4967754;28;20214;-60
2021/09/11 10:32:44;;;;;;;5.32;2.30;;;16.80;51.50;;;;;;5009161;28;20208;-60
2021/09/11 10:35:21;;;;;;;5.82;2.42;;;16.90;51.80;;;;;;5028215;28;20287;-58
2021/09/11 10:37:52;;;;;;;5.28;2.30;;;16.80;51.60;;;;;;5029580;28;20664;-61
2021/09/11 10:40:44;;;;;;;5.15;2.53;;;16.80;51.60;;;;;;5028401;28;20706;-59
2021/09/11 10:43:18;;;;;;;7.60;2.30;;;16.80;51.60;;;;;;5029370;28;20200;-60
2021/09/11 10:45:57;;;;;;;3.70;2.20;;;16.70;51.50;;;;;;5030180;28;20196;-57
2021/09/11 10:48:42;;;;;;;2.90;1.90;;;16.70;51.50;;;;;;5029721;28;20207;-60
2021/09/11 10:51:21;;;;;;;6.55;2.90;;;16.70;51.50;;;;;;5028782;28;20216;-61
2021/09/11 10:54:15;;;;;;;3.92;2.47;;;16.70;51.50;;;;;;5028878;28;20292;-60
2021/09/11 10:56:54;;;;;;;5.35;2.25;;;16.60;51.50;;;;;;5029253;28;20216;-60
2021/09/11 10:59:29;;;;;;;5.35;2.65;;;16.70;51.50;;;;;;5029344;28;20266;-57
2021/09/11 11:02:01;;;;;;;4.95;2.55;;;16.70;51.50;;;;;;5029389;28;20254;-60
2021/09/11 11:04:33;;;;;;;7.40;3.10;;;16.60;51.40;;;;;;5029424;28;20196;-58
2021/09/11 11:07:04;;;;;;;7.57;2.95;;;16.60;51.50;;;;;;5029088;28;20231;-59
2021/09/11 11:09:38;;;;;;;5.55;3.03;;;16.50;51.60;;;;;;5029583;28;20661;-59
2021/09/11 11:12:09;;;;;;;5.97;2.78;;;16.60;51.90;;;;;;5028577;28;20270;-59
2021/09/11 11:14:45;;;;;;;6.57;3.35;;;16.50;51.80;;;;;;5028339;28;20282;-55
2021/09/11 11:17:15;;;;;;;4.28;2.90;;;16.50;51.80;;;;;;5028836;28;20199;-60
2021/09/11 11:19:48;;;;;;;6.57;3.17;;;16.50;51.80;;;;;;5028918;28;20322;-59
2021/09/11 11:22:19;;;;;;;6.38;2.92;;;16.50;51.80;;;;;;5028944;28;20642;-58
2021/09/11 11:24:49;;;;;;;4.43;2.70;;;16.50;51.80;;;;;;5028367;28;20223;-58
2021/09/11 11:27:21;;;;;;;4.45;2.80;;;16.40;51.70;;;;;;5028437;28;20273;-59
2021/09/11 11:29:51;;;;;;;5.70;2.78;;;16.40;51.60;;;;;;5028751;28;20243;-60
2021/09/11 11:32:22;;;;;;;5.90;3.28;;;16.40;51.60;;;;;;5028903;28;20240;-58
2021/09/11 11:35:01;;;;;;;5.35;3.00;;;16.40;51.60;;;;;;5026673;28;20192;-57
2021/09/11 11:37:32;;;;;;;5.13;2.85;;;16.30;51.60;;;;;;5028758;28;20573;-59
2021/09/11 11:40:02;;;;;;;6.97;3.03;;;16.30;51.50;;;;;;5028316;28;20266;-59
2021/09/11 11:42:34;;;;;;;6.47;3.20;;;16.30;51.50;;;;;;5028457;28;20291;-58
2021/09/11 11:45:05;;;;;;;4.70;2.72;;;16.30;51.50;;;;;;5029132;28;20200;-58
2021/09/11 11:47:56;;;;;;;4.70;2.90;;;16.30;51.50;;;;;;5028378;28;20595;-59
2021/09/11 11:50:30;;;;;;;4.53;3.30;;;16.20;51.50;;;;;;5028168;28;20227;-60
2021/09/11 11:53:01;;;;;;;5.90;2.80;;;16.20;51.40;;;;;;5030732;28;20204;-60
2021/09/11 11:55:32;;;;;;;5.25;3.05;;;16.20;51.50;;;;;;5032854;28;20227;-59
2021/09/11 11:58:19;;;;;;;5.45;2.70;;;16.20;51.40;;;;;;5032828;28;20283;-58
2021/09/11 12:00:50;;;;;;;4.97;2.70;;;16.20;51.50;;;;;;5031940;28;20254;-57
2021/09/11 12:03:40;;;;;;;7.20;2.97;;;16.20;51.40;;;;;;5031805;28;20235;-58
2021/09/11 12:06:27;;;;;;;3.97;2.80;;;16.20;51.50;;;;;;5031957;28;20206;-58
2021/09/11 12:08:57;;;;;;;5.07;2.65;;;16.10;51.40;;;;;;5032504;28;20200;-59
2021/09/11 12:11:28;;;;;;;5.15;2.88;;;16.10;51.50;;;;;;5034490;28;20263;-60
2021/09/11 12:13:59;;;;;;;5.32;2.60;;;16.10;51.50;;;;;;5034775;28;20200;-59
2021/09/11 12:16:30;;;;;;;3.88;2.80;;;16.10;51.50;;;;;;5033711;28;20197;-61
2021/09/11 12:19:12;;;;;;;4.07;2.50;;;16.00;51.50;;;;;;5034263;28;20345;-57
2021/09/11 12:21:45;;;;;;;4.40;2.40;;;16.00;51.50;;;;;;5034512;28;20311;-59
2021/09/11 12:24:25;;;;;;;5.55;2.72;;;16.00;51.50;;;;;;5034475;28;20220;-56
2021/09/11 12:26:55;;;;;;;3.45;2.22;;;16.00;51.40;;;;;;5034212;28;20242;-58
2021/09/11 12:29:28;;;;;;;4.47;2.22;;;15.90;51.40;;;;;;5034102;28;20269;-58
2021/09/11 12:32:01;;;;;;;4.90;2.53;;;15.90;51.40;;;;;;5034357;28;20298;-58
2021/09/11 12:34:31;;;;;;;5.38;2.85;;;15.90;51.40;;;;;;5034260;28;20200;-59
2021/09/11 12:37:04;;;;;;;3.75;2.20;;;15.90;51.40;;;;;;5034188;28;20285;-58
2021/09/11 12:39:35;;;;;;;4.00;2.50;;;15.90;51.40;;;;;;5034035;28;20283;-58
2021/09/11 12:42:06;;;;;;;4.35;2.70;;;15.90;51.40;;;;;;5034159;28;20221;-59
2021/09/11 12:44:36;;;;;;;4.10;2.00;;;15.90;51.40;;;;;;5034588;28;20196;-58
2021/09/11 12:47:07;;;;;;;3.55;2.15;;;15.80;51.40;;;;;;5034539;28;20204;-60
2021/09/11 12:49:38;;;;;;;6.15;2.75;;;15.80;51.40;;;;;;5034068;28;20262;-56
2021/09/11 12:52:11;;;;;;;3.95;2.63;;;15.80;51.40;;;;;;5034149;28;20303;-58
2021/09/11 12:54:41;;;;;;;4.57;2.60;;;15.80;51.40;;;;;;5034228;28;20270;-56
2021/09/11 12:57:12;;;;;;;4.35;2.63;;;15.80;51.40;;;;;;5034141;28;20463;-58
2021/09/11 12:59:42;;;;;;;3.60;2.47;;;15.70;51.40;;;;;;5034124;28;22113;-55
2021/09/11 13:02:12;;;;;;;4.55;2.58;;;15.70;51.40;;;;;;5033985;28;20255;-57
2021/09/11 13:04:43;;;;;;;4.80;2.92;;;15.70;51.40;;;;;;5032928;28;20239;-58
2021/09/11 13:07:15;;;;;;;4.57;2.40;;;15.70;51.40;;;;;;5033987;28;20286;-57
2021/09/11 13:09:46;;;;;;;3.42;2.38;;;15.70;51.50;;;;;;5033876;28;20233;-58
2021/09/11 13:12:18;;;;;;;4.75;2.45;;;15.70;51.40;;;;;;5033673;28;20232;-55
2021/09/11 13:14:48;;;;;;;5.53;2.83;;;15.70;51.40;;;;;;5033859;28;20192;-59
2021/09/11 13:17:19;;;;;;;4.65;2.58;;;15.70;51.50;;;;;;5033829;28;20201;-57
2021/09/11 13:19:49;;;;;;;4.43;2.50;;;15.60;51.40;;;;;;5033913;28;20653;-56